Time;durP1;ratioP1;P1;durP2;ratioP2;P2;SDS_P1;SDS_P2;PMS_P1;PMS_P2;Temp;Humidity;BMP_temperature;BMP_pressure;BME280_temperature;BME280_humidity;BME280_pressure;Samples;Min_cycle;Max_cycle;Signal;HPM_P1;HPM_P2
2021/12/31 00:02:13;;;;;;;15.98;3.08;;;;;;;;;;5044901;28;21245;-65
2021/12/31 00:04:39;;;;;;;9.07;2.58;;;;;;;;;;5051178;28;20075;-66
2021/12/31 00:07:05;;;;;;;16.60;3.10;;;;;;;;;;5051491;28;20029;-66
2021/12/31 00:09:31;;;;;;;9.48;2.50;;;;;;;;;;5050092;28;20410;-66
2021/12/31 00:11:57;;;;;;;12.10;2.72;;;;;;;;;;5050607;28;20045;-66
2021/12/31 00:14:23;;;;;;;12.88;2.67;;;;;;;;;;5051419;28;20486;-65
2021/12/31 00:16:49;;;;;;;10.23;2.85;;;;;;;;;;5046465;28;20401;-66
2021/12/31 00:19:15;;;;;;;8.93;2.47;;;;;;;;;;5057049;28;20040;-66
2021/12/31 00:21:46;;;;;;;12.60;2.92;;;;;;;;;;5049324;28;20079;-66
2021/12/31 00:24:12;;;;;;;9.30;2.60;;;;;;;;;;5050943;28;20103;-66
2021/12/31 00:26:38;;;;;;;14.57;3.20;;;;;;;;;;5053394;28;20498;-66
2021/12/31 00:29:04;;;;;;;11.00;2.53;;;;;;;;;;5051350;28;20119;-66
2021/12/31 00:31:30;;;;;;;10.05;2.63;;;;;;;;;;5050765;28;20120;-66
2021/12/31 00:33:56;;;;;;;10.38;2.75;;;;;;;;;;5060349;28;20391;-66
2021/12/31 00:36:22;;;;;;;12.02;3.38;;;;;;;;;;5056820;28;20099;-66
2021/12/31 00:38:48;;;;;;;9.75;3.15;;;;;;;;;;5054351;28;20044;-66
2021/12/31 00:41:14;;;;;;;10.18;2.85;;;;;;;;;;5036189;28;20402;-66
2021/12/31 00:43:39;;;;;;;8.07;3.00;;;;;;;;;;5054712;28;20041;-66
2021/12/31 00:46:06;;;;;;;12.32;3.00;;;;;;;;;;5055158;28;20037;-66
2021/12/31 00:48:32;;;;;;;10.73;2.75;;;;;;;;;;5054852;28;20101;-65
2021/12/31 00:50:58;;;;;;;8.20;3.00;;;;;;;;;;5055337;28;20037;-66
2021/12/31 00:53:24;;;;;;;8.35;2.97;;;;;;;;;;5054914;28;20049;-66
2021/12/31 00:55:50;;;;;;;10.43;2.95;;;;;;;;;;5050853;28;20175;-66
2021/12/31 00:58:16;;;;;;;11.32;3.40;;;;;;;;;;5059612;28;20120;-66
2021/12/31 01:00:42;;;;;;;9.07;3.00;;;;;;;;;;5054870;28;20038;-66
2021/12/31 01:03:08;;;;;;;11.23;3.30;;;;;;;;;;5053988;28;20108;-66
2021/12/31 01:05:34;;;;;;;7.25;3.45;;;;;;;;;;5054730;28;20045;-66
2021/12/31 01:08:00;;;;;;;9.02;3.72;;;;;;;;;;5053719;28;20355;-66
2021/12/31 01:10:27;;;;;;;12.70;4.18;;;;;;;;;;5052146;28;20478;-66
2021/12/31 01:12:54;;;;;;;8.38;2.97;;;;;;;;;;5053601;28;20041;-66
2021/12/31 01:15:36;;;;;;;8.13;2.92;;;;;;;;;;5054665;28;20145;-66
2021/12/31 01:18:16;;;;;;;8.88;3.25;;;;;;;;;;5051645;28;20044;-66
2021/12/31 01:20:43;;;;;;;7.20;3.03;;;;;;;;;;5054267;28;20055;-66
2021/12/31 01:23:09;;;;;;;12.68;3.25;;;;;;;;;;5053592;28;20029;-66
2021/12/31 01:25:36;;;;;;;6.75;3.42;;;;;;;;;;5050883;28;20041;-66
2021/12/31 01:28:02;;;;;;;6.53;2.97;;;;;;;;;;5046280;28;20056;-66
2021/12/31 01:30:28;;;;;;;13.05;3.47;;;;;;;;;;5054396;28;20045;-66
2021/12/31 01:32:55;;;;;;;9.95;2.85;;;;;;;;;;5054107;28;20395;-66
2021/12/31 01:35:21;;;;;;;12.82;3.20;;;;;;;;;;5053911;28;20045;-66
2021/12/31 01:37:47;;;;;;;13.68;3.47;;;;;;;;;;5050668;28;20102;-66
2021/12/31 01:40:13;;;;;;;12.05;3.53;;;;;;;;;;5032007;28;20037;-66
2021/12/31 01:42:40;;;;;;;10.43;2.80;;;;;;;;;;5041177;28;20033;-66
2021/12/31 01:45:15;;;;;;;10.10;2.72;;;;;;;;;;5044412;28;20040;-66
2021/12/31 01:50:28;;;;;;;10.52;3.25;;;;;;;;;;5029843;28;20221;-66
2021/12/31 01:52:54;;;;;;;11.77;3.42;;;;;;;;;;5053519;28;20041;-66
2021/12/31 01:55:21;;;;;;;8.85;3.50;;;;;;;;;;5053402;28;20041;-66
2021/12/31 01:57:48;;;;;;;7.60;3.00;;;;;;;;;;5053698;28;20032;-66
2021/12/31 02:00:14;;;;;;;9.73;3.53;;;;;;;;;;5053207;28;20112;-65
2021/12/31 02:02:43;;;;;;;13.18;4.47;;;;;;;;;;5052331;28;20045;-66
2021/12/31 02:05:09;;;;;;;11.90;3.85;;;;;;;;;;5035171;28;20118;-66
2021/12/31 02:07:37;;;;;;;13.50;4.00;;;;;;;;;;5051994;28;20048;-66
2021/12/31 02:10:03;;;;;;;9.65;3.65;;;;;;;;;;5052342;28;20495;-66
2021/12/31 02:12:29;;;;;;;7.78;4.10;;;;;;;;;;5035286;28;20124;-66
2021/12/31 02:14:55;;;;;;;8.88;4.10;;;;;;;;;;5053466;28;20116;-66
2021/12/31 02:17:21;;;;;;;5.90;3.75;;;;;;;;;;5050721;28;20040;-66
2021/12/31 02:19:55;;;;;;;11.90;3.95;;;;;;;;;;5051460;28;20483;-66
2021/12/31 02:22:26;;;;;;;8.27;4.07;;;;;;;;;;5036251;28;20045;-66
2021/12/31 02:24:54;;;;;;;10.15;4.47;;;;;;;;;;5048166;28;20055;-66
2021/12/31 02:27:20;;;;;;;9.43;4.13;;;;;;;;;;5044122;28;20092;-66
2021/12/31 02:29:46;;;;;;;9.45;4.45;;;;;;;;;;5053212;28;20072;-66
2021/12/31 02:32:12;;;;;;;12.30;4.75;;;;;;;;;;5053163;28;20052;-66
2021/12/31 02:34:38;;;;;;;10.20;5.40;;;;;;;;;;5051780;28;20049;-66
2021/12/31 02:37:04;;;;;;;16.85;4.75;;;;;;;;;;5044643;28;20036;-66
2021/12/31 02:39:30;;;;;;;8.40;4.72;;;;;;;;;;5052404;28;20037;-66
2021/12/31 02:41:56;;;;;;;11.60;5.00;;;;;;;;;;5051587;28;20703;-66
2021/12/31 02:44:22;;;;;;;9.30;4.85;;;;;;;;;;5052388;28;20041;-66
2021/12/31 02:46:48;;;;;;;9.93;4.60;;;;;;;;;;5052942;28;20086;-66
2021/12/31 02:49:18;;;;;;;11.43;5.00;;;;;;;;;;5052131;28;20067;-66
2021/12/31 02:51:44;;;;;;;9.75;5.10;;;;;;;;;;5052890;28;20045;-66
2021/12/31 02:54:11;;;;;;;8.30;4.88;;;;;;;;;;5053150;28;20048;-66
2021/12/31 02:56:37;;;;;;;6.88;4.60;;;;;;;;;;5052461;28;20044;-66
2021/12/31 02:59:04;;;;;;;8.35;5.10;;;;;;;;;;5051888;28;20033;-66
2021/12/31 03:01:30;;;;;;;13.15;5.25;;;;;;;;;;5048654;28;20132;-66
2021/12/31 03:03:57;;;;;;;9.68;5.60;;;;;;;;;;5040958;28;20111;-66
2021/12/31 03:06:23;;;;;;;9.45;5.75;;;;;;;;;;5050664;28;20059;-66
2021/12/31 03:08:49;;;;;;;9.23;5.75;;;;;;;;;;5052347;28;20049;-66
2021/12/31 03:11:20;;;;;;;10.02;6.25;;;;;;;;;;5052665;28;20095;-66
2021/12/31 03:13:51;;;;;;;;;;;;;;;;;;5051991;28;20041;-66
2021/12/31 03:16:18;;;;;;;8.82;5.35;;;;;;;;;;5052928;28;19955;-66
2021/12/31 03:18:44;;;;;;;8.00;5.10;;;;;;;;;;5052439;28;20471;-66
2021/12/31 03:21:20;;;;;;;9.48;5.43;;;;;;;;;;5051136;28;20048;-66
2021/12/31 03:23:47;;;;;;;12.35;6.03;;;;;;;;;;5050781;28;20061;-66
2021/12/31 03:26:12;;;;;;;11.32;5.68;;;;;;;;;;5034354;28;20052;-66
2021/12/31 03:28:39;;;;;;;9.60;5.50;;;;;;;;;;5051630;28;20098;-66
2021/12/31 03:31:04;;;;;;;9.38;5.13;;;;;;;;;;5034579;28;20474;-66
2021/12/31 03:33:30;;;;;;;7.82;4.85;;;;;;;;;;5034393;28;20071;-66
2021/12/31 03:35:56;;;;;;;11.27;4.63;;;;;;;;;;5033296;28;20063;-67
2021/12/31 03:38:22;;;;;;;7.38;5.57;;;;;;;;;;5052088;28;20033;-66
2021/12/31 03:40:49;;;;;;;9.45;5.00;;;;;;;;;;5050775;28;20474;-66
2021/12/31 03:43:15;;;;;;;7.13;4.75;;;;;;;;;;5048940;28;20418;-66
2021/12/31 03:45:41;;;;;;;14.45;5.35;;;;;;;;;;5051701;28;20044;-66
2021/12/31 03:48:07;;;;;;;9.07;5.20;;;;;;;;;;5051561;28;20406;-66
2021/12/31 03:50:33;;;;;;;6.45;5.03;;;;;;;;;;5051471;28;20456;-65
2021/12/31 03:52:59;;;;;;;8.50;5.00;;;;;;;;;;5034024;28;20052;-66
2021/12/31 03:55:25;;;;;;;8.80;5.75;;;;;;;;;;5051325;28;20041;-66
2021/12/31 03:57:51;;;;;;;8.00;5.00;;;;;;;;;;5051397;28;20037;-66
2021/12/31 04:00:17;;;;;;;10.38;5.47;;;;;;;;;;5051693;28;20033;-66
2021/12/31 04:02:43;;;;;;;5.93;4.78;;;;;;;;;;5049770;28;20037;-66
2021/12/31 04:05:09;;;;;;;9.70;5.47;;;;;;;;;;5051634;28;20033;-66
2021/12/31 04:07:35;;;;;;;10.32;5.20;;;;;;;;;;5051283;28;20072;-66
2021/12/31 04:10:01;;;;;;;6.72;5.25;;;;;;;;;;5051763;28;20076;-65
2021/12/31 04:12:27;;;;;;;8.93;5.63;;;;;;;;;;5051324;28;20041;-66
2021/12/31 04:14:53;;;;;;;6.53;5.28;;;;;;;;;;5050890;28;20047;-65
2021/12/31 04:17:19;;;;;;;11.40;5.97;;;;;;;;;;5051228;28;20032;-66
2021/12/31 04:19:51;;;;;;;8.98;5.72;;;;;;;;;;5050805;28;20035;-65
2021/12/31 04:22:17;;;;;;;8.20;5.30;;;;;;;;;;5049098;28;20061;-66
2021/12/31 04:27:09;;;;;;;11.73;5.85;;;;;;;;;;5051486;28;20048;-66
2021/12/31 04:29:35;;;;;;;7.90;4.93;;;;;;;;;;5050853;28;20112;-66
2021/12/31 04:32:01;;;;;;;8.98;5.10;;;;;;;;;;5049977;28;20098;-65
2021/12/31 04:34:28;;;;;;;6.47;4.78;;;;;;;;;;5051190;28;20076;-66
2021/12/31 04:36:54;;;;;;;5.80;4.93;;;;;;;;;;5051449;28;20036;-66
2021/12/31 04:39:20;;;;;;;9.02;4.95;;;;;;;;;;5066073;22;20136;-68
2021/12/31 04:41:46;;;;;;;10.63;4.95;;;;;;;;;;5046843;28;20037;-68
2021/12/31 04:44:12;;;;;;;7.25;4.60;;;;;;;;;;5051314;28;20090;-68
2021/12/31 04:46:38;;;;;;;8.18;4.72;;;;;;;;;;5050430;28;20048;-68
2021/12/31 04:49:06;;;;;;;7.93;4.35;;;;;;;;;;5049208;28;20123;-68
2021/12/31 04:51:32;;;;;;;10.18;4.18;;;;;;;;;;5048142;28;20499;-68
2021/12/31 04:53:58;;;;;;;6.57;3.95;;;;;;;;;;5031619;28;20066;-68
2021/12/31 04:56:24;;;;;;;8.10;4.18;;;;;;;;;;5031295;28;20034;-68
2021/12/31 04:58:50;;;;;;;7.25;3.67;;;;;;;;;;5039628;28;20041;-68
2021/12/31 05:01:20;;;;;;;7.25;3.47;;;;;;;;;;5029328;28;20029;-68
2021/12/31 05:03:46;;;;;;;5.22;2.95;;;;;;;;;;5023797;28;20046;-68
2021/12/31 05:06:12;;;;;;;6.15;3.08;;;;;;;;;;5026872;28;20033;-68
2021/12/31 05:08:38;;;;;;;4.20;2.60;;;;;;;;;;5029558;28;20088;-68
2021/12/31 05:11:04;;;;;;;5.93;2.80;;;;;;;;;;5030038;28;20069;-68
2021/12/31 05:13:30;;;;;;;5.35;2.88;;;;;;;;;;5032583;28;20072;-68
2021/12/31 05:16:01;;;;;;;5.70;2.38;;;;;;;;;;5030995;28;20121;-68
2021/12/31 05:18:27;;;;;;;3.25;2.50;;;;;;;;;;5039569;28;20045;-68
2021/12/31 05:20:53;;;;;;;3.33;2.42;;;;;;;;;;5031253;28;20087;-68
2021/12/31 05:23:19;;;;;;;8.95;2.78;;;;;;;;;;5028257;28;20034;-68
2021/12/31 05:25:45;;;;;;;6.18;2.30;;;;;;;;;;5035922;28;20052;-68
2021/12/31 05:28:11;;;;;;;6.03;2.10;;;;;;;;;;5035327;28;20045;-68
2021/12/31 05:30:37;;;;;;;6.30;2.50;;;;;;;;;;5033950;28;20038;-68
2021/12/31 05:33:03;;;;;;;3.83;2.30;;;;;;;;;;5038492;28;20074;-68
2021/12/31 05:35:29;;;;;;;5.20;2.20;;;;;;;;;;5035471;28;20037;-68
2021/12/31 05:37:57;;;;;;;4.55;2.10;;;;;;;;;;5037555;28;20517;-68
2021/12/31 05:40:23;;;;;;;3.33;1.77;;;;;;;;;;5033739;28;20553;-68
2021/12/31 05:42:49;;;;;;;6.88;2.20;;;;;;;;;;5039479;28;20076;-68
2021/12/31 05:45:15;;;;;;;5.20;2.22;;;;;;;;;;5034111;28;20049;-68
2021/12/31 05:47:41;;;;;;;4.03;1.80;;;;;;;;;;5034780;28;20042;-68
2021/12/31 05:50:18;;;;;;;5.35;2.47;;;;;;;;;;5054523;28;20127;-68
2021/12/31 05:52:44;;;;;;;4.38;2.00;;;;;;;;;;5034855;28;20065;-68
2021/12/31 05:55:10;;;;;;;3.38;2.10;;;;;;;;;;5045999;28;20045;-68
2021/12/31 05:57:36;;;;;;;3.50;1.92;;;;;;;;;;5036355;28;20065;-68
2021/12/31 06:00:03;;;;;;;5.45;1.85;;;;;;;;;;5034496;28;20061;-67
2021/12/31 06:02:29;;;;;;;4.35;2.15;;;;;;;;;;5038048;28;20132;-68
2021/12/31 06:04:55;;;;;;;6.15;2.40;;;;;;;;;;5034941;28;20132;-68
2021/12/31 06:07:21;;;;;;;7.10;2.22;;;;;;;;;;5033321;28;20094;-67
2021/12/31 06:09:47;;;;;;;5.25;2.28;;;;;;;;;;5034338;28;20495;-68
2021/12/31 06:12:13;;;;;;;3.88;2.10;;;;;;;;;;5038475;28;20424;-67
2021/12/31 06:14:39;;;;;;;6.40;2.20;;;;;;;;;;5045046;28;20048;-68
2021/12/31 06:17:07;;;;;;;4.00;1.95;;;;;;;;;;5045003;28;20037;-67
2021/12/31 06:19:34;;;;;;;3.85;2.13;;;;;;;;;;5053833;28;20091;-68
2021/12/31 06:22:00;;;;;;;6.90;2.30;;;;;;;;;;5041306;28;20033;-68
2021/12/31 06:24:26;;;;;;;4.78;2.38;;;;;;;;;;5033687;28;20091;-67
2021/12/31 06:26:52;;;;;;;4.80;2.30;;;;;;;;;;5045927;28;20394;-67
2021/12/31 06:29:18;;;;;;;5.60;2.17;;;;;;;;;;5034847;28;20410;-68
2021/12/31 06:31:44;;;;;;;3.35;1.85;;;;;;;;;;5034468;28;20048;-67
2021/12/31 06:34:10;;;;;;;4.80;2.10;;;;;;;;;;5033229;28;20168;-68
2021/12/31 06:36:36;;;;;;;5.78;2.17;;;;;;;;;;5033569;28;20037;-68
2021/12/31 06:39:03;;;;;;;6.50;2.25;;;;;;;;;;5051557;28;20103;-68
2021/12/31 06:41:29;;;;;;;4.07;2.45;;;;;;;;;;5035577;28;20072;-67
2021/12/31 06:43:55;;;;;;;6.05;2.53;;;;;;;;;;5032649;28;20049;-68
2021/12/31 06:46:21;;;;;;;5.32;2.78;;;;;;;;;;5033515;28;20566;-68
2021/12/31 06:48:47;;;;;;;6.53;2.40;;;;;;;;;;5038359;28;20033;-68
2021/12/31 06:51:14;;;;;;;5.45;2.53;;;;;;;;;;5046774;28;20056;-68
2021/12/31 06:53:40;;;;;;;6.43;2.95;;;;;;;;;;5033203;28;20045;-68
2021/12/31 06:56:06;;;;;;;5.05;2.67;;;;;;;;;;5033133;28;20473;-68
2021/12/31 06:58:32;;;;;;;6.68;2.70;;;;;;;;;;5034457;28;20053;-68
2021/12/31 07:00:58;;;;;;;4.75;2.65;;;;;;;;;;5032625;28;20091;-67
2021/12/31 07:03:24;;;;;;;8.55;2.85;;;;;;;;;;5036942;28;20523;-68
2021/12/31 07:05:50;;;;;;;8.20;2.80;;;;;;;;;;5038866;28;20033;-68
2021/12/31 07:08:16;;;;;;;5.57;2.53;;;;;;;;;;5045964;28;20080;-68
2021/12/31 07:10:42;;;;;;;4.93;2.63;;;;;;;;;;5034837;28;20072;-67
2021/12/31 07:13:11;;;;;;;5.50;3.00;;;;;;;;;;5033016;28;20067;-67
2021/12/31 07:15:47;;;;;;;4.15;2.85;;;;;;;;;;5041607;28;20041;-68
2021/12/31 07:18:13;;;;;;;10.15;3.55;;;;;;;;;;5039410;28;20155;-68
2021/12/31 07:20:39;;;;;;;5.88;2.92;;;;;;;;;;5025465;28;20120;-68
2021/12/31 07:23:07;;;;;;;6.75;2.95;;;;;;;;;;5025542;28;20447;-67
2021/12/31 07:25:33;;;;;;;6.47;3.15;;;;;;;;;;5026434;28;20045;-67
2021/12/31 07:27:59;;;;;;;4.72;2.95;;;;;;;;;;5038029;28;20041;-67
2021/12/31 07:30:25;;;;;;;6.47;3.08;;;;;;;;;;5029753;28;20095;-67
2021/12/31 07:32:51;;;;;;;7.72;2.75;;;;;;;;;;5031768;28;20102;-67
2021/12/31 07:35:17;;;;;;;6.07;3.20;;;;;;;;;;5031190;28;20041;-68
2021/12/31 07:37:43;;;;;;;7.43;3.05;;;;;;;;;;5029186;28;20521;-67
2021/12/31 07:40:11;;;;;;;7.85;3.30;;;;;;;;;;5030518;28;20037;-67
2021/12/31 07:42:37;;;;;;;7.50;3.50;;;;;;;;;;5030948;28;20053;-67
2021/12/31 07:45:04;;;;;;;5.32;2.90;;;;;;;;;;5030135;28;20045;-67
2021/12/31 07:47:30;;;;;;;7.00;3.20;;;;;;;;;;5037218;28;20411;-67
2021/12/31 07:49:56;;;;;;;5.30;3.42;;;;;;;;;;5028588;28;20034;-67
2021/12/31 07:52:22;;;;;;;4.95;2.78;;;;;;;;;;5025592;28;20051;-67
2021/12/31 07:54:48;;;;;;;5.90;3.10;;;;;;;;;;5027252;28;20068;-67
2021/12/31 07:57:14;;;;;;;5.63;3.10;;;;;;;;;;5028946;28;20044;-67
2021/12/31 07:59:40;;;;;;;6.95;2.95;;;;;;;;;;5031284;28;20158;-67
2021/12/31 08:02:07;;;;;;;6.00;3.28;;;;;;;;;;5033524;28;20037;-67
2021/12/31 08:04:33;;;;;;;7.50;3.40;;;;;;;;;;5026965;28;20442;-66
2021/12/31 08:06:59;;;;;;;5.20;3.38;;;;;;;;;;5028674;28;20045;-67
2021/12/31 08:09:25;;;;;;;10.75;3.80;;;;;;;;;;5029408;28;20454;-66
2021/12/31 08:11:51;;;;;;;5.35;3.17;;;;;;;;;;5029716;28;20094;-67
2021/12/31 08:14:17;;;;;;;7.07;3.20;;;;;;;;;;5027961;28;20048;-67
2021/12/31 08:16:43;;;;;;;6.60;3.78;;;;;;;;;;5029921;28;20039;-68
2021/12/31 08:19:09;;;;;;;5.63;3.40;;;;;;;;;;5028992;28;20561;-68
2021/12/31 08:21:35;;;;;;;4.40;2.88;;;;;;;;;;5029478;28;20053;-71
2021/12/31 08:24:01;;;;;;;5.40;3.15;;;;;;;;;;5021082;28;20415;-71
2021/12/31 08:26:27;;;;;;;8.48;3.38;;;;;;;;;;5025994;28;20084;-71
2021/12/31 08:28:55;;;;;;;8.73;3.40;;;;;;;;;;5030155;28;20037;-70
2021/12/31 08:31:21;;;;;;;5.50;3.30;;;;;;;;;;5024549;28;20037;-70
2021/12/31 08:33:47;;;;;;;6.78;3.40;;;;;;;;;;5028260;28;20052;-71
2021/12/31 08:36:13;;;;;;;4.45;3.10;;;;;;;;;;5030131;28;20045;-70
2021/12/31 08:38:39;;;;;;;8.10;3.75;;;;;;;;;;5029326;28;20044;-70
2021/12/31 08:41:05;;;;;;;6.88;3.13;;;;;;;;;;5028067;28;20399;-70
2021/12/31 08:43:31;;;;;;;7.68;3.20;;;;;;;;;;5031305;28;20073;-71
2021/12/31 08:45:57;;;;;;;6.18;3.08;;;;;;;;;;5030315;28;20036;-71
2021/12/31 08:48:23;;;;;;;5.57;3.08;;;;;;;;;;5031270;28;20045;-70
2021/12/31 08:50:49;;;;;;;6.53;2.70;;;;;;;;;;5024011;28;20095;-70
2021/12/31 08:53:15;;;;;;;6.00;3.17;;;;;;;;;;5031267;28;20572;-70
2021/12/31 08:55:42;;;;;;;6.45;3.10;;;;;;;;;;5030810;28;20037;-71
2021/12/31 08:58:08;;;;;;;6.55;3.08;;;;;;;;;;5032244;28;20045;-70
2021/12/31 09:00:34;;;;;;;4.75;3.33;;;;;;;;;;5034672;28;20087;-70
2021/12/31 09:03:00;;;;;;;5.72;3.22;;;;;;;;;;5034752;28;20037;-70
2021/12/31 09:05:27;;;;;;;6.03;2.90;;;;;;;;;;5041957;28;20490;-70
2021/12/31 09:07:53;;;;;;;5.22;3.13;;;;;;;;;;5044745;28;20041;-70
2021/12/31 09:10:19;;;;;;;6.60;3.45;;;;;;;;;;5034024;28;20041;-70
2021/12/31 09:12:46;;;;;;;5.20;3.38;;;;;;;;;;5034679;28;20044;-72
2021/12/31 09:15:12;;;;;;;7.50;3.30;;;;;;;;;;5034242;28;20045;-71
2021/12/31 09:17:38;;;;;;;6.95;3.28;;;;;;;;;;5033475;28;20033;-71
2021/12/31 09:20:05;;;;;;;7.63;3.30;;;;;;;;;;5039507;28;20082;-72
2021/12/31 09:22:31;;;;;;;8.55;3.65;;;;;;;;;;5035469;28;20037;-72
2021/12/31 09:25:00;;;;;;;4.95;2.95;;;;;;;;;;5034617;28;20076;-73
2021/12/31 09:27:27;;;;;;;6.53;3.30;;;;;;;;;;5034397;28;20037;-72
2021/12/31 09:29:53;;;;;;;5.85;2.88;;;;;;;;;;5034983;28;20045;-72
2021/12/31 09:32:20;;;;;;;5.78;3.20;;;;;;;;;;5032886;28;20088;-72
2021/12/31 09:34:48;;;;;;;4.03;3.40;;;;;;;;;;5035259;28;21436;-72
2021/12/31 09:37:14;;;;;;;7.03;3.47;;;;;;;;;;5037742;28;20048;-70
2021/12/31 09:39:40;;;;;;;8.80;3.33;;;;;;;;;;5035286;28;20057;-70
2021/12/31 09:42:07;;;;;;;6.93;3.28;;;;;;;;;;5034385;28;20056;-71
2021/12/31 09:44:33;;;;;;;6.30;3.50;;;;;;;;;;5033881;28;20045;-71
2021/12/31 09:46:59;;;;;;;6.93;3.75;;;;;;;;;;5028847;28;20041;-72
2021/12/31 09:49:25;;;;;;;5.55;3.42;;;;;;;;;;5033864;28;20045;-71
2021/12/31 09:51:51;;;;;;;8.55;3.85;;;;;;;;;;5035136;28;20573;-72
2021/12/31 09:54:21;;;;;;;5.10;3.45;;;;;;;;;;5035065;28;20128;-71
2021/12/31 09:56:48;;;;;;;5.53;3.70;;;;;;;;;;5033884;28;20044;-71
2021/12/31 09:59:14;;;;;;;6.60;3.75;;;;;;;;;;5028928;28;20048;-71
2021/12/31 10:01:47;;;;;;;10.82;4.18;;;;;;;;;;5015269;28;20046;-71
2021/12/31 10:04:13;;;;;;;8.75;3.55;;;;;;;;;;5033291;28;20045;-72
2021/12/31 10:06:59;;;;;;;7.20;4.25;;;;;;;;;;5031820;28;20045;-73
2021/12/31 10:09:25;;;;;;;8.23;3.80;;;;;;;;;;5029112;28;20045;-71
2021/12/31 10:11:51;;;;;;;5.65;3.28;;;;;;;;;;5033523;28;20041;-71
2021/12/31 10:14:17;;;;;;;7.97;4.03;;;;;;;;;;5033900;28;20088;-72
2021/12/31 10:16:43;;;;;;;6.53;3.95;;;;;;;;;;5033991;28;20391;-71
2021/12/31 10:19:09;;;;;;;5.18;3.63;;;;;;;;;;5030919;28;20033;-73
2021/12/31 10:21:46;;;;;;;8.90;3.67;;;;;;;;;;5032253;28;20062;-72
2021/12/31 10:24:22;;;;;;;6.72;4.10;;;;;;;;;;5014201;28;20046;-73
2021/12/31 10:26:48;;;;;;;7.60;4.18;;;;;;;;;;5033834;28;20099;-73
2021/12/31 10:29:15;;;;;;;6.70;3.88;;;;;;;;;;5033317;28;20117;-74
2021/12/31 10:31:48;;;;;;;6.30;3.45;;;;;;;;;;5036290;28;20045;-73
2021/12/31 10:34:37;;;;;;;7.70;3.67;;;;;;;;;;5039931;28;20040;-72
2021/12/31 10:37:04;;;;;;;4.85;3.15;;;;;;;;;;5045815;28;20395;-72
2021/12/31 10:39:32;;;;;;;5.82;3.53;;;;;;;;;;5061244;22;20067;-70
2021/12/31 10:42:03;;;;;;;6.30;3.85;;;;;;;;;;5047452;28;20621;-70
2021/12/31 10:44:47;;;;;;;7.80;4.40;;;;;;;;;;5050948;28;20067;-70
2021/12/31 10:47:15;;;;;;;7.03;3.70;;;;;;;;;;5049469;28;20535;-70
2021/12/31 10:49:56;;;;;;;7.72;3.95;;;;;;;;;;5048580;28;20034;-71
2021/12/31 10:52:29;;;;;;;9.40;4.22;;;;;;;;;;5024906;28;20503;-70
2021/12/31 10:55:03;;;;;;;7.75;3.80;;;;;;;;;;5034945;28;20442;-70
2021/12/31 10:57:37;;;;;;;5.15;3.70;;;;;;;;;;5035683;28;20491;-71
2021/12/31 11:00:04;;;;;;;7.60;3.47;;;;;;;;;;5034630;28;20064;-70
2021/12/31 11:02:32;;;;;;;5.85;3.97;;;;;;;;;;5036983;28;20044;-71
2021/12/31 11:04:59;;;;;;;8.20;3.85;;;;;;;;;;5032911;28;21072;-71
2021/12/31 11:07:25;;;;;;;7.30;4.00;;;;;;;;;;5034323;28;20498;-71
2021/12/31 11:09:51;;;;;;;8.20;4.22;;;;;;;;;;5034802;28;20499;-71
2021/12/31 11:12:17;;;;;;;9.88;3.60;;;;;;;;;;5030395;28;20549;-70
2021/12/31 11:14:43;;;;;;;10.13;4.25;;;;;;;;;;5039799;28;20040;-70
2021/12/31 11:17:09;;;;;;;9.20;4.40;;;;;;;;;;5032425;28;20548;-70
2021/12/31 11:19:39;;;;;;;7.15;4.18;;;;;;;;;;5032677;28;20037;-70
2021/12/31 11:22:06;;;;;;;7.18;4.20;;;;;;;;;;5037780;28;20064;-71
2021/12/31 11:24:38;;;;;;;6.60;4.05;;;;;;;;;;5035333;28;20415;-70
2021/12/31 11:27:23;;;;;;;7.85;4.40;;;;;;;;;;5051178;28;20049;-70
2021/12/31 11:29:49;;;;;;;10.38;4.88;;;;;;;;;;5040853;28;20082;-70
2021/12/31 11:32:15;;;;;;;9.15;4.63;;;;;;;;;;5029846;28;20041;-70
2021/12/31 11:34:41;;;;;;;11.68;5.32;;;;;;;;;;5038970;28;20041;-70
2021/12/31 11:37:07;;;;;;;10.05;5.18;;;;;;;;;;5032048;28;20147;-70
2021/12/31 11:39:36;;;;;;;8.20;4.93;;;;;;;;;;5034144;28;20042;-68
2021/12/31 11:42:03;;;;;;;11.48;5.20;;;;;;;;;;5031202;28;20080;-68
2021/12/31 11:44:30;;;;;;;9.57;5.88;;;;;;;;;;5031531;28;20049;-69
2021/12/31 11:47:11;;;;;;;11.20;6.05;;;;;;;;;;5036320;28;20041;-69
2021/12/31 11:49:37;;;;;;;11.43;6.07;;;;;;;;;;5046265;28;20090;-69
2021/12/31 11:52:06;;;;;;;9.90;6.20;;;;;;;;;;5030701;28;20818;-69
2021/12/31 11:54:32;;;;;;;9.70;5.88;;;;;;;;;;5037531;28;20060;-68
2021/12/31 11:57:00;;;;;;;10.75;5.07;;;;;;;;;;5041990;28;20114;-69
2021/12/31 11:59:30;;;;;;;11.52;5.28;;;;;;;;;;5032533;28;20117;-69
2021/12/31 12:02:10;;;;;;;9.93;5.70;;;;;;;;;;5040790;28;20128;-69
2021/12/31 12:04:41;;;;;;;9.60;5.37;;;;;;;;;;5037442;28;20041;-69
2021/12/31 12:07:11;;;;;;;13.02;5.43;;;;;;;;;;5027898;28;20037;-68
2021/12/31 12:09:37;;;;;;;9.68;5.00;;;;;;;;;;5032326;28;20051;-69
2021/12/31 12:12:08;;;;;;;11.75;5.95;;;;;;;;;;5030833;28;20045;-69
2021/12/31 12:14:38;;;;;;;9.13;5.30;;;;;;;;;;5035320;28;20395;-68
2021/12/31 12:17:05;;;;;;;10.27;5.40;;;;;;;;;;5036295;28;20119;-69
2021/12/31 12:19:46;;;;;;;12.57;5.65;;;;;;;;;;5031368;28;20129;-68
2021/12/31 12:22:12;;;;;;;;;;;;;;;;;;5028495;28;20144;-68
2021/12/31 12:24:38;;;;;;;9.48;5.40;;;;;;;;;;5030048;28;20193;-68
2021/12/31 12:27:05;;;;;;;7.97;5.82;;;;;;;;;;5039827;28;20045;-69
2021/12/31 12:29:31;;;;;;;12.32;5.90;;;;;;;;;;5032883;28;20132;-68
2021/12/31 12:32:10;;;;;;;9.05;5.50;;;;;;;;;;5031978;28;20404;-68
2021/12/31 12:34:36;;;;;;;12.38;5.72;;;;;;;;;;5027991;28;20398;-69
2021/12/31 12:37:02;;;;;;;8.60;5.53;;;;;;;;;;5030791;28;20494;-70
2021/12/31 12:39:28;;;;;;;11.60;6.55;;;;;;;;;;5025897;28;20538;-70
2021/12/31 12:41:54;;;;;;;14.02;6.95;;;;;;;;;;5026069;28;20034;-70
2021/12/31 12:44:20;;;;;;;11.55;7.07;;;;;;;;;;5024567;28;20041;-73
2021/12/31 12:46:54;;;;;;;15.40;8.32;;;;;;;;;;5027648;28;20037;-71
2021/12/31 12:49:20;;;;;;;15.20;8.07;;;;;;;;;;5023888;28;20045;-71
2021/12/31 12:51:48;;;;;;;18.23;9.30;;;;;;;;;;5026187;28;20037;-71
2021/12/31 12:54:18;;;;;;;17.85;9.15;;;;;;;;;;5028562;28;20057;-71
2021/12/31 12:56:44;;;;;;;16.35;8.35;;;;;;;;;;5029896;28;20069;-72
2021/12/31 12:59:10;;;;;;;12.77;8.15;;;;;;;;;;5029500;28;20060;-71
2021/12/31 13:01:41;;;;;;;14.02;8.05;;;;;;;;;;5028365;28;20478;-71
2021/12/31 13:04:09;;;;;;;12.73;7.57;;;;;;;;;;5029994;28;20033;-71
2021/12/31 13:06:35;;;;;;;15.82;8.27;;;;;;;;;;5018043;28;20053;-71
2021/12/31 13:09:03;;;;;;;14.23;7.30;;;;;;;;;;5026560;28;20042;-71
2021/12/31 13:11:30;;;;;;;13.73;8.15;;;;;;;;;;5029718;28;20041;-71
2021/12/31 13:13:56;;;;;;;13.60;7.97;;;;;;;;;;5025699;28;20041;-71
2021/12/31 13:16:22;;;;;;;16.45;8.38;;;;;;;;;;5027191;28;20786;-71
2021/12/31 13:19:03;;;;;;;13.82;7.97;;;;;;;;;;5030400;28;20037;-70
2021/12/31 13:21:29;;;;;;;12.50;7.75;;;;;;;;;;5028237;28;20111;-70
2021/12/31 13:23:55;;;;;;;16.60;8.10;;;;;;;;;;5030498;28;20041;-71
2021/12/31 13:26:29;;;;;;;13.32;7.95;;;;;;;;;;5030846;28;20399;-70
2021/12/31 13:28:58;;;;;;;11.73;8.10;;;;;;;;;;5030360;28;20039;-70
2021/12/31 13:31:38;;;;;;;13.40;7.20;;;;;;;;;;5028139;28;20120;-70
2021/12/31 13:34:19;;;;;;;14.70;8.85;;;;;;;;;;5021744;28;20049;-70
2021/12/31 13:36:47;;;;;;;15.60;10.13;;;;;;;;;;5028202;28;20037;-71
2021/12/31 13:39:19;;;;;;;20.30;11.52;;;;;;;;;;5026380;28;20034;-70
2021/12/31 13:41:51;;;;;;;19.92;11.82;;;;;;;;;;5026444;28;20093;-70
2021/12/31 13:44:25;;;;;;;19.08;10.32;;;;;;;;;;5029543;28;20045;-71
2021/12/31 13:46:59;;;;;;;13.98;8.93;;;;;;;;;;5033667;28;20411;-71
2021/12/31 13:49:25;;;;;;;17.15;9.27;;;;;;;;;;5034300;28;20073;-71
2021/12/31 13:51:51;;;;;;;16.85;9.88;;;;;;;;;;5032235;28;20044;-71
2021/12/31 13:54:20;;;;;;;20.17;10.05;;;;;;;;;;5029884;28;20041;-71
2021/12/31 13:56:47;;;;;;;15.18;8.38;;;;;;;;;;5036950;28;20610;-74
2021/12/31 13:59:27;;;;;;;15.35;8.77;;;;;;;;;;5032713;28;20034;-71
2021/12/31 14:02:05;;;;;;;12.13;8.15;;;;;;;;;;5034296;28;20664;-70
2021/12/31 14:04:32;;;;;;;16.75;9.05;;;;;;;;;;5031393;28;20041;-70
2021/12/31 14:07:19;;;;;;;14.57;8.88;;;;;;;;;;5027409;28;20093;-71
2021/12/31 14:09:46;;;;;;;16.88;10.25;;;;;;;;;;5023698;28;20045;-71
2021/12/31 14:12:12;;;;;;;18.27;9.70;;;;;;;;;;5034196;28;20029;-71
2021/12/31 14:14:40;;;;;;;18.10;10.60;;;;;;;;;;5036264;28;20402;-71
2021/12/31 14:17:07;;;;;;;20.83;11.10;;;;;;;;;;5037137;28;20517;-71
2021/12/31 14:19:33;;;;;;;19.10;10.23;;;;;;;;;;5035884;28;20033;-71
2021/12/31 14:22:02;;;;;;;21.15;10.70;;;;;;;;;;5031475;28;20480;-70
2021/12/31 14:24:30;;;;;;;18.10;10.20;;;;;;;;;;5036552;28;20037;-71
2021/12/31 14:26:56;;;;;;;19.40;9.95;;;;;;;;;;5032957;28;20047;-71
2021/12/31 14:29:22;;;;;;;18.17;9.80;;;;;;;;;;5033194;28;20128;-70
2021/12/31 14:31:48;;;;;;;14.32;7.80;;;;;;;;;;5035492;28;20074;-71
2021/12/31 14:34:16;;;;;;;17.35;9.93;;;;;;;;;;5031334;28;20038;-71
2021/12/31 14:36:57;;;;;;;16.17;9.77;;;;;;;;;;5031133;28;20046;-71
2021/12/31 14:39:23;;;;;;;15.10;8.80;;;;;;;;;;5031646;28;20446;-71
2021/12/31 14:41:49;;;;;;;22.80;8.50;;;;;;;;;;5036711;28;20037;-71
2021/12/31 14:44:15;;;;;;;16.08;7.80;;;;;;;;;;5033107;28;20040;-72
2021/12/31 14:46:41;;;;;;;17.02;8.02;;;;;;;;;;5027356;28;20157;-69